»·PEaware :: N232BM KMFR-KPDX

N232BM :: KMFR-KPDX

FLIGHT INFORMATION

Flight Status: Arrived
Operator: Privately registered:
United States
More flights under this callsign
Pilot: Robert M. (6318)
Aircraft: BEECH AIRCRAFT BARON
(BE58)
More flights by this aircraft type
Origin: KMFR Rogue Valley Intl-Medford
United States
Destination: KPDX Portland Intl
United States
More flights between these airports :: More routes between these airports
Route: JKSN1 OED OED MOXEE6
File this flight plan on PilotEdge
Remarks: ILS RWY 10R
Altitude:
(Current/Filed)
10,000ft
Speed:
(Current/Filed)
190kts
Departed: 29-Dec-17 12:00 PM
Arrived: 29-Dec-17 01:14 PM
Distance/Time
Traveled:
193nm/1:14
Distance/Time
To Go:
Arrived

Flight Plot

Page will automatically refresh every two minutes.

Flight plan parsing failed; only flown route is shown


Map Options




Map Legend


Flown Route
Filed Route
Departure Airport
Arrival Airport
Navaid (VOR, NDB)
Fix

Horizontal Profiles

Position Reports

Time Latitude Longitude Heading Altitude Ground
Speed
29-Dec-17 11:48 42.369685 -122.873977 247 1336ft 0kts
29-Dec-17 11:49 42.369685 -122.873978 247 1336ft 0kts
29-Dec-17 11:50 42.369685 -122.873978 247 1336ft 0kts
29-Dec-17 11:51 42.369685 -122.873978 247 1336ft 0kts
29-Dec-17 11:52 42.369685 -122.873978 247 1336ft 0kts
29-Dec-17 11:53 42.369685 -122.873978 247 1336ft 0kts
29-Dec-17 11:54 42.369685 -122.873978 247 1336ft 0kts
29-Dec-17 11:55 42.369685 -122.873978 247 1336ft 0kts
29-Dec-17 11:56 42.369685 -122.873978 247 1336ft 0kts
29-Dec-17 11:57 42.369685 -122.873978 247 1336ft 0kts
29-Dec-17 11:58 42.369685 -122.873978 247 1336ft 0kts
29-Dec-17 11:59 42.369666 -122.874003 215 1336ft 2kts
29-Dec-17 12:00 42.372292 -122.873453 339 1336ft 20kts
29-Dec-17 12:01 42.379597 -122.877350 338 1336ft 32kts
29-Dec-17 12:02 42.385711 -122.880334 51 1336ft 0kts
29-Dec-17 12:03 42.385711 -122.880334 51 1336ft 0kts
29-Dec-17 12:04 42.385711 -122.880334 51 1336ft 0kts
29-Dec-17 12:05 42.385706 -122.878914 158 1336ft 0kts
29-Dec-17 12:06 42.366827 -122.868321 155 1819ft 144kts
29-Dec-17 12:07 42.352566 -122.898332 319 3270ft 153kts
29-Dec-17 12:08 42.389209 -122.924801 329 4541ft 152kts
29-Dec-17 12:09 42.431201 -122.943130 23 5158ft 180kts
29-Dec-17 12:10 42.476101 -122.914362 23 6024ft 188kts
29-Dec-17 12:11 42.526581 -122.904749 358 6973ft 190kts
29-Dec-17 12:12 42.578620 -122.899962 358 7917ft 191kts
29-Dec-17 12:13 42.630824 -122.893776 356 8831ft 191kts
29-Dec-17 12:14 42.683093 -122.887384 356 9718ft 190kts
29-Dec-17 12:15 42.737315 -122.879572 356 10024ft 211kts
29-Dec-17 12:16 42.796795 -122.871879 356 10021ft 221kts
29-Dec-17 12:17 42.857707 -122.864382 355 10021ft 225kts
29-Dec-17 12:18 42.918828 -122.858715 355 10008ft 228kts
29-Dec-17 12:19 42.981864 -122.854348 354 10125ft 224kts
29-Dec-17 12:20 43.040605 -122.846450 355 10037ft 207kts
29-Dec-17 12:21 43.096773 -122.837601 355 10035ft 203kts
29-Dec-17 12:22 43.152027 -122.828709 355 10034ft 203kts
29-Dec-17 12:23 43.208000 -122.820373 353 10029ft 203kts
29-Dec-17 12:24 43.263944 -122.814047 353 10029ft 203kts
29-Dec-17 12:25 43.320057 -122.807713 353 10029ft 203kts
29-Dec-17 12:26 43.376336 -122.801345 353 10029ft 203kts
29-Dec-17 12:27 43.432429 -122.795925 351 10029ft 202kts
29-Dec-17 12:28 43.488257 -122.792270 351 10028ft 202kts
29-Dec-17 12:29 43.543196 -122.788633 351 10024ft 203kts
29-Dec-17 12:30 43.599470 -122.784690 351 10012ft 208kts
29-Dec-17 12:31 43.656306 -122.780959 351 10000ft 215kts
29-Dec-17 12:32 43.710500 -122.778031 351 9994ft 220kts
29-Dec-17 12:33 43.765471 -122.773034 353 9993ft 223kts
29-Dec-17 12:34 43.821577 -122.769093 352 9993ft 223kts
29-Dec-17 12:35 43.877125 -122.766335 351 9994ft 223kts
29-Dec-17 12:36 43.933602 -122.763625 351 9994ft 223kts
29-Dec-17 12:37 43.989199 -122.760961 351 9994ft 223kts
29-Dec-17 12:38 44.043590 -122.758349 351 9994ft 223kts
29-Dec-17 12:39 44.098718 -122.755698 351 9995ft 223kts
29-Dec-17 12:40 44.149767 -122.753175 352 9990ft 223kts
29-Dec-17 12:41 44.201489 -122.748168 354 9991ft 224kts
29-Dec-17 12:42 44.253693 -122.743022 353 9991ft 224kts
29-Dec-17 12:43 44.305773 -122.737892 353 9991ft 224kts
29-Dec-17 12:44 44.362061 -122.732345 354 9984ft 224kts
29-Dec-17 12:45 44.421699 -122.726452 354 9972ft 225kts
29-Dec-17 12:46 44.481244 -122.720551 354 9985ft 225kts
29-Dec-17 12:47 44.539420 -122.714768 354 9973ft 226kts
29-Dec-17 12:48 44.597197 -122.709006 354 9977ft 225kts
29-Dec-17 12:49 44.654876 -122.703236 353 9975ft 225kts
29-Dec-17 12:50 44.711784 -122.697534 353 9975ft 224kts
29-Dec-17 12:51 44.766443 -122.692043 353 9975ft 225kts
29-Dec-17 12:52 44.822099 -122.686440 353 9976ft 225kts
29-Dec-17 12:53 44.878260 -122.680773 354 9976ft 225kts
29-Dec-17 12:54 44.935548 -122.674991 353 9976ft 225kts
29-Dec-17 12:55 44.993520 -122.669130 354 9976ft 225kts
29-Dec-17 12:56 45.052289 -122.663164 354 10031ft 224kts
29-Dec-17 12:57 45.109273 -122.657900 354 9351ft 234kts
29-Dec-17 12:58 45.162042 -122.655256 354 8505ft 233kts
29-Dec-17 12:59 45.207201 -122.653062 356 7794ft 231kts
29-Dec-17 13:00 45.254937 -122.647255 358 7026ft 227kts
29-Dec-17 13:01 45.310945 -122.648511 329 6100ft 214kts
29-Dec-17 13:02 45.355914 -122.675621 330 6021ft 185kts
29-Dec-17 13:03 45.397898 -122.701113 329 6023ft 185kts
29-Dec-17 13:04 45.441598 -122.728501 329 6016ft 187kts
29-Dec-17 13:05 45.484892 -122.756473 329 6013ft 190kts
29-Dec-17 13:06 45.531348 -122.787196 329 5792ft 197kts
29-Dec-17 13:07 45.580182 -122.821145 329 5038ft 203kts
29-Dec-17 13:08 45.628125 -122.858958 305 4290ft 197kts
29-Dec-17 13:09 45.658674 -122.921394 300 3561ft 196kts
29-Dec-17 13:10 45.698010 -122.937505 69 2991ft 172kts
29-Dec-17 13:11 45.698577 -122.883470 126 2982ft 109kts
29-Dec-17 13:12 45.682920 -122.847003 123 2919ft 111kts
29-Dec-17 13:13 45.668243 -122.809799 122 2902ft 107kts
29-Dec-17 13:14 45.653620 -122.772086 120 2376ft 99kts
29-Dec-17 13:15 45.640390 -122.737726 119 1860ft 100kts
29-Dec-17 13:16 45.627754 -122.704896 118 1349ft 93kts
29-Dec-17 13:17 45.615562 -122.673313 118 753ft 91kts
29-Dec-17 13:18 45.604045 -122.643576 120 482ft 91kts
29-Dec-17 13:19 45.593544 -122.617296 120 26ft 57kts
29-Dec-17 13:20 45.588349 -122.606202 210 26ft 14kts
29-Dec-17 13:21 45.586311 -122.602005 118 26ft 24kts
29-Dec-17 13:22 45.583439 -122.594626 121 26ft 22kts
29-Dec-17 13:23 45.581309 -122.596326 297 26ft 5kts
29-Dec-17 13:24 45.581316 -122.596344 297 26ft 0kts

Navigation Log

Ident Type
Flight plan parsing failed, navigation log unavailable